sensor_id;sensor_type;location;lat;lon;timestamp;temperature;humidity
52765;DHT22;38650;44.536;18.664;2023-05-29T00:02:21;17.10;99.90
52765;DHT22;38650;44.536;18.664;2023-05-29T00:04:46;17.00;99.90
52765;DHT22;38650;44.536;18.664;2023-05-29T00:07:12;17.00;99.90
52765;DHT22;38650;44.536;18.664;2023-05-29T00:09:37;17.00;99.90
52765;DHT22;38650;44.536;18.664;2023-05-29T00:12:03;16.80;99.90
52765;DHT22;38650;44.536;18.664;2023-05-29T00:14:28;16.80;99.90
52765;DHT22;38650;44.536;18.664;2023-05-29T00:16:54;16.80;99.90
52765;DHT22;38650;44.536;18.664;2023-05-29T00:19:19;16.70;99.90
52765;DHT22;38650;44.536;18.664;2023-05-29T00:21:45;16.70;99.90
52765;DHT22;38650;44.536;18.664;2023-05-29T00:24:13;16.70;99.90
52765;DHT22;38650;44.536;18.664;2023-05-29T00:26:39;16.70;99.90
52765;DHT22;38650;44.536;18.664;2023-05-29T00:29:05;16.70;99.90
52765;DHT22;38650;44.536;18.664;2023-05-29T00:31:30;16.80;99.90
52765;DHT22;38650;44.536;18.664;2023-05-29T00:33:56;16.80;99.90
52765;DHT22;38650;44.536;18.664;2023-05-29T00:36:21;16.80;99.90
52765;DHT22;38650;44.536;18.664;2023-05-29T00:38:47;16.70;99.90
52765;DHT22;38650;44.536;18.664;2023-05-29T00:41:14;16.80;99.90
52765;DHT22;38650;44.536;18.664;2023-05-29T00:43:39;16.80;99.90
52765;DHT22;38650;44.536;18.664;2023-05-29T00:46:05;16.90;99.90
52765;DHT22;38650;44.536;18.664;2023-05-29T00:48:30;16.80;99.90
52765;DHT22;38650;44.536;18.664;2023-05-29T00:50:56;16.80;99.90
52765;DHT22;38650;44.536;18.664;2023-05-29T00:53:22;16.70;99.90
52765;DHT22;38650;44.536;18.664;2023-05-29T00:55:48;16.70;99.90
52765;DHT22;38650;44.536;18.664;2023-05-29T00:58:14;16.70;99.90
52765;DHT22;38650;44.536;18.664;2023-05-29T01:00:39;16.70;99.90
52765;DHT22;38650;44.536;18.664;2023-05-29T01:03:05;16.70;99.90
52765;DHT22;38650;44.536;18.664;2023-05-29T01:05:33;16.70;99.90
52765;DHT22;38650;44.536;18.664;2023-05-29T01:07:59;16.70;99.90
52765;DHT22;38650;44.536;18.664;2023-05-29T01:10:25;16.70;99.90
52765;DHT22;38650;44.536;18.664;2023-05-29T01:13:11;16.70;99.90
52765;DHT22;38650;44.536;18.664;2023-05-29T01:15:46;16.60;99.90
52765;DHT22;38650;44.536;18.664;2023-05-29T01:18:19;16.60;99.90
52765;DHT22;38650;44.536;18.664;2023-05-29T01:20:48;16.50;99.90
52765;DHT22;38650;44.536;18.664;2023-05-29T01:28:33;16.50;99.90
52765;DHT22;38650;44.536;18.664;2023-05-29T01:31:02;16.50;99.90
52765;DHT22;38650;44.536;18.664;2023-05-29T01:33:29;16.50;99.90
52765;DHT22;38650;44.536;18.664;2023-05-29T01:35:54;16.50;99.90
52765;DHT22;38650;44.536;18.664;2023-05-29T01:38:20;16.50;99.90
52765;DHT22;38650;44.536;18.664;2023-05-29T01:40:45;16.50;99.90
52765;DHT22;38650;44.536;18.664;2023-05-29T01:43:12;16.50;99.90
52765;DHT22;38650;44.536;18.664;2023-05-29T01:45:37;16.50;99.90
52765;DHT22;38650;44.536;18.664;2023-05-29T01:48:03;16.50;99.90
52765;DHT22;38650;44.536;18.664;2023-05-29T01:50:29;16.40;99.90
52765;DHT22;38650;44.536;18.664;2023-05-29T01:52:55;16.40;99.90
52765;DHT22;38650;44.536;18.664;2023-05-29T01:55:21;16.40;99.90
52765;DHT22;38650;44.536;18.664;2023-05-29T01:57:46;16.40;99.90
52765;DHT22;38650;44.536;18.664;2023-05-29T02:00:12;16.30;99.90
52765;DHT22;38650;44.536;18.664;2023-05-29T02:02:40;16.40;99.90
52765;DHT22;38650;44.536;18.664;2023-05-29T02:05:07;16.40;99.90
52765;DHT22;38650;44.536;18.664;2023-05-29T02:07:33;16.40;99.90
52765;DHT22;38650;44.536;18.664;2023-05-29T02:09:59;16.30;99.90
52765;DHT22;38650;44.536;18.664;2023-05-29T02:12:24;16.30;99.90
52765;DHT22;38650;44.536;18.664;2023-05-29T02:14:50;16.20;99.90
52765;DHT22;38650;44.536;18.664;2023-05-29T02:17:16;16.20;99.90
52765;DHT22;38650;44.536;18.664;2023-05-29T02:19:41;16.10;99.90
52765;DHT22;38650;44.536;18.664;2023-05-29T02:22:07;16.00;99.90
52765;DHT22;38650;44.536;18.664;2023-05-29T02:24:33;15.80;99.90
52765;DHT22;38650;44.536;18.664;2023-05-29T02:26:58;15.70;99.90
52765;DHT22;38650;44.536;18.664;2023-05-29T02:29:24;15.50;99.90
52765;DHT22;38650;44.536;18.664;2023-05-29T02:31:49;15.50;99.90
52765;DHT22;38650;44.536;18.664;2023-05-29T02:34:15;15.60;99.90
52765;DHT22;38650;44.536;18.664;2023-05-29T02:36:40;15.60;99.90
52765;DHT22;38650;44.536;18.664;2023-05-29T02:39:06;15.70;99.90
52765;DHT22;38650;44.536;18.664;2023-05-29T02:41:32;15.70;99.90
52765;DHT22;38650;44.536;18.664;2023-05-29T02:43:57;15.80;99.90
52765;DHT22;38650;44.536;18.664;2023-05-29T02:46:23;15.80;99.90
52765;DHT22;38650;44.536;18.664;2023-05-29T02:48:48;15.80;99.90
52765;DHT22;38650;44.536;18.664;2023-05-29T02:51:14;15.80;99.90
52765;DHT22;38650;44.536;18.664;2023-05-29T02:53:39;15.90;99.90
52765;DHT22;38650;44.536;18.664;2023-05-29T02:56:06;15.90;99.90
52765;DHT22;38650;44.536;18.664;2023-05-29T02:58:33;15.90;99.90
52765;DHT22;38650;44.536;18.664;2023-05-29T03:01:00;15.90;99.90
52765;DHT22;38650;44.536;18.664;2023-05-29T03:03:27;15.90;99.90
52765;DHT22;38650;44.536;18.664;2023-05-29T03:05:53;15.80;99.90
52765;DHT22;38650;44.536;18.664;2023-05-29T03:08:18;15.80;99.90
52765;DHT22;38650;44.536;18.664;2023-05-29T03:10:44;15.80;99.90
52765;DHT22;38650;44.536;18.664;2023-05-29T03:13:10;15.80;99.90
52765;DHT22;38650;44.536;18.664;2023-05-29T03:15:35;15.80;99.90
52765;DHT22;38650;44.536;18.664;2023-05-29T03:18:01;15.90;99.90
52765;DHT22;38650;44.536;18.664;2023-05-29T03:20:26;15.90;99.90
52765;DHT22;38650;44.536;18.664;2023-05-29T03:22:53;15.90;99.90
52765;DHT22;38650;44.536;18.664;2023-05-29T03:25:19;15.90;99.90
52765;DHT22;38650;44.536;18.664;2023-05-29T03:27:45;16.00;99.90
52765;DHT22;38650;44.536;18.664;2023-05-29T03:30:11;16.00;99.90
52765;DHT22;38650;44.536;18.664;2023-05-29T03:32:37;16.10;99.90
52765;DHT22;38650;44.536;18.664;2023-05-29T03:35:02;16.10;99.90
52765;DHT22;38650;44.536;18.664;2023-05-29T03:37:29;16.00;99.90
52765;DHT22;38650;44.536;18.664;2023-05-29T03:39:54;15.90;99.90
52765;DHT22;38650;44.536;18.664;2023-05-29T03:42:20;15.90;99.90
52765;DHT22;38650;44.536;18.664;2023-05-29T03:44:46;16.00;99.90
52765;DHT22;38650;44.536;18.664;2023-05-29T03:47:11;16.00;99.90
52765;DHT22;38650;44.536;18.664;2023-05-29T03:49:37;16.00;99.90
52765;DHT22;38650;44.536;18.664;2023-05-29T03:52:03;16.00;99.90
52765;DHT22;38650;44.536;18.664;2023-05-29T03:54:29;16.10;99.90
52765;DHT22;38650;44.536;18.664;2023-05-29T03:56:54;16.10;99.90
52765;DHT22;38650;44.536;18.664;2023-05-29T03:59:20;16.20;99.90
52765;DHT22;38650;44.536;18.664;2023-05-29T04:01:46;16.20;99.90
52765;DHT22;38650;44.536;18.664;2023-05-29T04:04:11;16.20;99.90
52765;DHT22;38650;44.536;18.664;2023-05-29T04:06:37;16.30;99.90
52765;DHT22;38650;44.536;18.664;2023-05-29T04:09:06;16.20;99.90
52765;DHT22;38650;44.536;18.664;2023-05-29T04:11:32;16.20;99.90
52765;DHT22;38650;44.536;18.664;2023-05-29T04:14:00;16.10;99.90
52765;DHT22;38650;44.536;18.664;2023-05-29T04:16:25;16.20;99.90
52765;DHT22;38650;44.536;18.664;2023-05-29T04:18:51;16.10;99.90
52765;DHT22;38650;44.536;18.664;2023-05-29T04:21:16;16.10;99.90
52765;DHT22;38650;44.536;18.664;2023-05-29T04:23:42;16.20;99.90
52765;DHT22;38650;44.536;18.664;2023-05-29T04:26:07;16.10;99.90
52765;DHT22;38650;44.536;18.664;2023-05-29T04:28:33;16.10;99.90
52765;DHT22;38650;44.536;18.664;2023-05-29T04:30:58;16.20;99.90
52765;DHT22;38650;44.536;18.664;2023-05-29T04:33:24;16.30;99.90
52765;DHT22;38650;44.536;18.664;2023-05-29T04:35:50;16.20;99.90
52765;DHT22;38650;44.536;18.664;2023-05-29T04:38:15;16.20;99.90
52765;DHT22;38650;44.536;18.664;2023-05-29T04:40:42;16.10;99.90
52765;DHT22;38650;44.536;18.664;2023-05-29T04:43:08;16.10;99.90
52765;DHT22;38650;44.536;18.664;2023-05-29T04:45:34;16.20;99.90
52765;DHT22;38650;44.536;18.664;2023-05-29T04:48:03;16.40;99.90
52765;DHT22;38650;44.536;18.664;2023-05-29T04:50:28;16.50;99.90
52765;DHT22;38650;44.536;18.664;2023-05-29T04:52:56;16.60;99.90
52765;DHT22;38650;44.536;18.664;2023-05-29T04:55:22;16.50;99.90
52765;DHT22;38650;44.536;18.664;2023-05-29T04:57:48;16.50;99.90
52765;DHT22;38650;44.536;18.664;2023-05-29T05:00:15;16.50;99.90
52765;DHT22;38650;44.536;18.664;2023-05-29T05:02:41;16.60;99.90
52765;DHT22;38650;44.536;18.664;2023-05-29T05:05:08;16.60;99.90
52765;DHT22;38650;44.536;18.664;2023-05-29T05:07:33;16.80;99.90
52765;DHT22;38650;44.536;18.664;2023-05-29T05:09:59;16.80;99.90
52765;DHT22;38650;44.536;18.664;2023-05-29T05:12:25;16.70;99.90
52765;DHT22;38650;44.536;18.664;2023-05-29T05:14:50;16.70;99.90
52765;DHT22;38650;44.536;18.664;2023-05-29T05:17:16;16.70;99.90
52765;DHT22;38650;44.536;18.664;2023-05-29T05:19:42;16.60;99.90
52765;DHT22;38650;44.536;18.664;2023-05-29T05:22:07;16.60;99.90
52765;DHT22;38650;44.536;18.664;2023-05-29T05:24:33;16.60;99.90
52765;DHT22;38650;44.536;18.664;2023-05-29T05:26:59;16.70;99.90
52765;DHT22;38650;44.536;18.664;2023-05-29T05:29:25;16.90;99.90
52765;DHT22;38650;44.536;18.664;2023-05-29T05:31:50;17.00;99.90
52765;DHT22;38650;44.536;18.664;2023-05-29T05:34:16;17.20;99.90
52765;DHT22;38650;44.536;18.664;2023-05-29T05:36:42;17.30;99.90
52765;DHT22;38650;44.536;18.664;2023-05-29T05:39:08;17.50;99.90
52765;DHT22;38650;44.536;18.664;2023-05-29T05:41:33;17.60;99.90
52765;DHT22;38650;44.536;18.664;2023-05-29T05:43:59;17.70;99.90
52765;DHT22;38650;44.536;18.664;2023-05-29T05:46:25;17.90;99.90
52765;DHT22;38650;44.536;18.664;2023-05-29T05:48:51;18.00;99.90
52765;DHT22;38650;44.536;18.664;2023-05-29T05:51:17;18.20;99.90
52765;DHT22;38650;44.536;18.664;2023-05-29T05:53:43;18.10;99.90
52765;DHT22;38650;44.536;18.664;2023-05-29T05:56:08;17.90;99.90
52765;DHT22;38650;44.536;18.664;2023-05-29T05:58:34;17.80;99.90
52765;DHT22;38650;44.536;18.664;2023-05-29T06:01:00;17.90;99.90
52765;DHT22;38650;44.536;18.664;2023-05-29T06:03:26;18.40;99.90
52765;DHT22;38650;44.536;18.664;2023-05-29T06:05:52;18.80;99.90
52765;DHT22;38650;44.536;18.664;2023-05-29T06:08:19;18.80;99.90
52765;DHT22;38650;44.536;18.664;2023-05-29T06:10:45;18.90;99.90
52765;DHT22;38650;44.536;18.664;2023-05-29T06:13:11;19.10;99.90
52765;DHT22;38650;44.536;18.664;2023-05-29T06:15:37;19.50;99.90
52765;DHT22;38650;44.536;18.664;2023-05-29T06:18:03;19.70;99.90
52765;DHT22;38650;44.536;18.664;2023-05-29T06:20:30;19.80;99.90
52765;DHT22;38650;44.536;18.664;2023-05-29T06:22:56;19.80;99.90
52765;DHT22;38650;44.536;18.664;2023-05-29T06:25:21;19.90;99.90
52765;DHT22;38650;44.536;18.664;2023-05-29T06:27:47;20.10;99.90
52765;DHT22;38650;44.536;18.664;2023-05-29T06:30:13;20.00;99.90
52765;DHT22;38650;44.536;18.664;2023-05-29T06:32:38;19.90;99.90
52765;DHT22;38650;44.536;18.664;2023-05-29T06:35:04;19.80;99.90
52765;DHT22;38650;44.536;18.664;2023-05-29T06:37:31;19.80;99.90
52765;DHT22;38650;44.536;18.664;2023-05-29T06:39:57;19.80;99.90
52765;DHT22;38650;44.536;18.664;2023-05-29T06:42:22;19.90;99.90
52765;DHT22;38650;44.536;18.664;2023-05-29T06:44:48;20.10;99.90
52765;DHT22;38650;44.536;18.664;2023-05-29T06:47:13;20.30;99.90
52765;DHT22;38650;44.536;18.664;2023-05-29T06:49:39;20.50;99.90
52765;DHT22;38650;44.536;18.664;2023-05-29T06:52:04;20.60;99.90
52765;DHT22;38650;44.536;18.664;2023-05-29T06:54:30;20.50;99.90
52765;DHT22;38650;44.536;18.664;2023-05-29T06:56:56;20.60;99.90
52765;DHT22;38650;44.536;18.664;2023-05-29T06:59:22;20.80;99.90
52765;DHT22;38650;44.536;18.664;2023-05-29T07:01:47;21.10;99.90
52765;DHT22;38650;44.536;18.664;2023-05-29T07:04:13;21.40;99.90
52765;DHT22;38650;44.536;18.664;2023-05-29T07:06:39;21.50;99.90
52765;DHT22;38650;44.536;18.664;2023-05-29T07:09:04;21.60;99.90
52765;DHT22;38650;44.536;18.664;2023-05-29T07:11:30;21.80;99.90
52765;DHT22;38650;44.536;18.664;2023-05-29T07:13:56;22.10;99.90
52765;DHT22;38650;44.536;18.664;2023-05-29T07:16:21;22.50;99.90
52765;DHT22;38650;44.536;18.664;2023-05-29T07:18:47;22.80;99.90
52765;DHT22;38650;44.536;18.664;2023-05-29T07:21:13;22.90;99.90
52765;DHT22;38650;44.536;18.664;2023-05-29T07:23:39;22.90;99.90
52765;DHT22;38650;44.536;18.664;2023-05-29T07:26:05;22.70;99.90
52765;DHT22;38650;44.536;18.664;2023-05-29T07:28:30;22.90;99.90
52765;DHT22;38650;44.536;18.664;2023-05-29T07:30:56;23.50;99.90
52765;DHT22;38650;44.536;18.664;2023-05-29T07:33:21;25.50;99.90
52765;DHT22;38650;44.536;18.664;2023-05-29T08:01:16;26.90;96.60
52765;DHT22;38650;44.536;18.664;2023-05-29T08:16:12;29.70;90.90
52765;DHT22;38650;44.536;18.664;2023-05-29T08:18:39;29.20;90.50
52765;DHT22;38650;44.536;18.664;2023-05-29T08:21:05;29.70;89.30
52765;DHT22;38650;44.536;18.664;2023-05-29T08:23:32;31.20;85.70
52765;DHT22;38650;44.536;18.664;2023-05-29T08:25:57;32.20;79.20
52765;DHT22;38650;44.536;18.664;2023-05-29T08:28:23;32.60;77.70
52765;DHT22;38650;44.536;18.664;2023-05-29T08:30:48;32.10;76.60
52765;DHT22;38650;44.536;18.664;2023-05-29T08:33:14;31.50;79.20
52765;DHT22;38650;44.536;18.664;2023-05-29T08:35:40;30.80;78.00
52765;DHT22;38650;44.536;18.664;2023-05-29T08:38:06;30.70;79.10
52765;DHT22;38650;44.536;18.664;2023-05-29T08:40:32;30.50;77.60
52765;DHT22;38650;44.536;18.664;2023-05-29T08:43:02;30.60;78.70
52765;DHT22;38650;44.536;18.664;2023-05-29T08:45:29;31.40;75.50
52765;DHT22;38650;44.536;18.664;2023-05-29T08:47:57;32.30;74.80
52765;DHT22;38650;44.536;18.664;2023-05-29T08:50:27;32.80;76.90
52765;DHT22;38650;44.536;18.664;2023-05-29T08:52:54;32.80;75.00
52765;DHT22;38650;44.536;18.664;2023-05-29T08:55:26;32.90;72.50
52765;DHT22;38650;44.536;18.664;2023-05-29T08:57:56;32.70;70.50
52765;DHT22;38650;44.536;18.664;2023-05-29T09:00:24;32.50;69.70
52765;DHT22;38650;44.536;18.664;2023-05-29T09:02:58;32.70;71.80
52765;DHT22;38650;44.536;18.664;2023-05-29T09:05:25;32.00;72.20
52765;DHT22;38650;44.536;18.664;2023-05-29T09:07:53;31.30;74.90
52765;DHT22;38650;44.536;18.664;2023-05-29T09:10:25;31.10;73.30
52765;DHT22;38650;44.536;18.664;2023-05-29T09:12:55;32.00;71.60
52765;DHT22;38650;44.536;18.664;2023-05-29T09:15:22;32.40;70.40
52765;DHT22;38650;44.536;18.664;2023-05-29T09:17:54;33.10;70.10
52765;DHT22;38650;44.536;18.664;2023-05-29T09:20:21;32.70;71.00
52765;DHT22;38650;44.536;18.664;2023-05-29T09:22:59;32.00;69.00
52765;DHT22;38650;44.536;18.664;2023-05-29T09:25:39;31.70;69.60
52765;DHT22;38650;44.536;18.664;2023-05-29T09:28:05;30.60;71.70
52765;DHT22;38650;44.536;18.664;2023-05-29T09:30:36;30.00;73.50
52765;DHT22;38650;44.536;18.664;2023-05-29T09:33:03;30.60;74.80
52765;DHT22;38650;44.536;18.664;2023-05-29T09:35:35;31.10;74.40
52765;DHT22;38650;44.536;18.664;2023-05-29T09:38:00;31.50;74.80
52765;DHT22;38650;44.536;18.664;2023-05-29T09:40:29;31.20;71.20
52765;DHT22;38650;44.536;18.664;2023-05-29T09:42:55;31.50;70.40
52765;DHT22;38650;44.536;18.664;2023-05-29T09:45:24;31.50;70.50
52765;DHT22;38650;44.536;18.664;2023-05-29T09:47:51;31.70;70.30
52765;DHT22;38650;44.536;18.664;2023-05-29T09:50:18;31.10;70.40
52765;DHT22;38650;44.536;18.664;2023-05-29T09:52:46;30.30;69.40
52765;DHT22;38650;44.536;18.664;2023-05-29T09:55:13;29.60;71.10
52765;DHT22;38650;44.536;18.664;2023-05-29T09:57:44;29.10;72.30
52765;DHT22;38650;44.536;18.664;2023-05-29T10:00:11;28.60;73.70
52765;DHT22;38650;44.536;18.664;2023-05-29T10:02:38;28.40;72.90
52765;DHT22;38650;44.536;18.664;2023-05-29T10:05:08;27.90;75.60
52765;DHT22;38650;44.536;18.664;2023-05-29T10:07:35;27.70;74.60
52765;DHT22;38650;44.536;18.664;2023-05-29T10:10:04;27.60;75.90
52765;DHT22;38650;44.536;18.664;2023-05-29T10:12:34;27.50;75.00
52765;DHT22;38650;44.536;18.664;2023-05-29T10:15:02;27.30;78.30
52765;DHT22;38650;44.536;18.664;2023-05-29T10:17:32;27.00;78.00
52765;DHT22;38650;44.536;18.664;2023-05-29T10:19:58;26.80;77.30
52765;DHT22;38650;44.536;18.664;2023-05-29T10:22:26;26.80;79.10
52765;DHT22;38650;44.536;18.664;2023-05-29T10:24:53;26.70;80.60
52765;DHT22;38650;44.536;18.664;2023-05-29T10:27:18;26.70;81.60
52765;DHT22;38650;44.536;18.664;2023-05-29T10:34:55;26.00;83.50
52765;DHT22;38650;44.536;18.664;2023-05-29T10:37:32;25.70;85.10
52765;DHT22;38650;44.536;18.664;2023-05-29T10:40:05;25.40;88.70
52765;DHT22;38650;44.536;18.664;2023-05-29T10:45:04;24.60;87.60
52765;DHT22;38650;44.536;18.664;2023-05-29T10:47:30;24.10;89.80
52765;DHT22;38650;44.536;18.664;2023-05-29T10:50:02;23.30;87.20
52765;DHT22;38650;44.536;18.664;2023-05-29T10:52:31;22.70;91.10
52765;DHT22;38650;44.536;18.664;2023-05-29T10:54:57;22.10;93.50
52765;DHT22;38650;44.536;18.664;2023-05-29T10:57:23;22.10;94.70
52765;DHT22;38650;44.536;18.664;2023-05-29T10:59:58;22.10;95.80
52765;DHT22;38650;44.536;18.664;2023-05-29T11:02:24;22.00;96.20
52765;DHT22;38650;44.536;18.664;2023-05-29T11:05:17;22.10;97.60
52765;DHT22;38650;44.536;18.664;2023-05-29T11:07:53;22.10;98.70
52765;DHT22;38650;44.536;18.664;2023-05-29T11:11:05;22.20;99.70
52765;DHT22;38650;44.536;18.664;2023-05-29T11:13:06;22.60;99.90
52765;DHT22;38650;44.536;18.664;2023-05-29T11:15:32;22.80;99.90
52765;DHT22;38650;44.536;18.664;2023-05-29T11:18:07;22.90;99.90
52765;DHT22;38650;44.536;18.664;2023-05-29T11:20:37;22.90;99.90
52765;DHT22;38650;44.536;18.664;2023-05-29T11:23:07;22.90;99.90
52765;DHT22;38650;44.536;18.664;2023-05-29T11:25:35;23.00;99.90
52765;DHT22;38650;44.536;18.664;2023-05-29T11:28:01;23.20;99.90
52765;DHT22;38650;44.536;18.664;2023-05-29T11:30:30;23.30;99.90
52765;DHT22;38650;44.536;18.664;2023-05-29T11:32:55;23.60;99.90
52765;DHT22;38650;44.536;18.664;2023-05-29T11:35:24;23.90;99.90
52765;DHT22;38650;44.536;18.664;2023-05-29T11:37:54;24.90;99.90
52765;DHT22;38650;44.536;18.664;2023-05-29T11:40:19;25.70;99.90
52765;DHT22;38650;44.536;18.664;2023-05-29T11:42:48;25.90;99.90
52765;DHT22;38650;44.536;18.664;2023-05-29T11:45:15;26.10;99.90
52765;DHT22;38650;44.536;18.664;2023-05-29T11:47:57;26.10;99.90
52765;DHT22;38650;44.536;18.664;2023-05-29T11:50:24;26.20;99.90
52765;DHT22;38650;44.536;18.664;2023-05-29T11:52:50;26.40;99.90
52765;DHT22;38650;44.536;18.664;2023-05-29T11:55:19;26.90;98.30
52765;DHT22;38650;44.536;18.664;2023-05-29T11:58:07;27.10;99.90
52765;DHT22;38650;44.536;18.664;2023-05-29T12:00:35;26.80;98.30
52765;DHT22;38650;44.536;18.664;2023-05-29T12:03:01;26.60;99.20
52765;DHT22;38650;44.536;18.664;2023-05-29T12:05:29;26.40;97.50
52765;DHT22;38650;44.536;18.664;2023-05-29T12:07:56;26.00;98.20
52765;DHT22;38650;44.536;18.664;2023-05-29T12:10:22;25.70;98.70
52765;DHT22;38650;44.536;18.664;2023-05-29T12:12:49;25.60;98.30
52765;DHT22;38650;44.536;18.664;2023-05-29T12:15:15;25.60;98.70
52765;DHT22;38650;44.536;18.664;2023-05-29T12:17:41;25.70;99.90
52765;DHT22;38650;44.536;18.664;2023-05-29T12:20:07;25.70;98.50
52765;DHT22;38650;44.536;18.664;2023-05-29T12:22:35;25.70;98.20
52765;DHT22;38650;44.536;18.664;2023-05-29T12:27:40;25.70;99.50
52765;DHT22;38650;44.536;18.664;2023-05-29T12:30:12;25.90;99.10
52765;DHT22;38650;44.536;18.664;2023-05-29T12:32:41;26.00;99.00
52765;DHT22;38650;44.536;18.664;2023-05-29T12:35:11;26.10;99.90
52765;DHT22;38650;44.536;18.664;2023-05-29T12:37:44;26.30;98.90
52765;DHT22;38650;44.536;18.664;2023-05-29T12:40:13;26.40;98.90
52765;DHT22;38650;44.536;18.664;2023-05-29T12:42:40;26.60;98.90
52765;DHT22;38650;44.536;18.664;2023-05-29T12:45:06;27.10;99.90
52765;DHT22;38650;44.536;18.664;2023-05-29T12:47:33;27.60;97.80
52765;DHT22;38650;44.536;18.664;2023-05-29T12:49:59;28.00;97.30
52765;DHT22;38650;44.536;18.664;2023-05-29T12:52:24;28.20;96.20
52765;DHT22;38650;44.536;18.664;2023-05-29T12:54:50;28.40;96.20
52765;DHT22;38650;44.536;18.664;2023-05-29T12:57:15;28.50;94.50
52765;DHT22;38650;44.536;18.664;2023-05-29T12:59:41;28.10;94.30
52765;DHT22;38650;44.536;18.664;2023-05-29T13:02:07;27.60;94.10
52765;DHT22;38650;44.536;18.664;2023-05-29T13:04:33;27.50;95.80
52765;DHT22;38650;44.536;18.664;2023-05-29T13:06:59;27.60;96.10
52765;DHT22;38650;44.536;18.664;2023-05-29T13:09:25;27.70;94.30
52765;DHT22;38650;44.536;18.664;2023-05-29T13:11:50;27.70;95.50
52765;DHT22;38650;44.536;18.664;2023-05-29T13:14:18;27.80;94.80
52765;DHT22;38650;44.536;18.664;2023-05-29T13:16:43;27.90;95.10
52765;DHT22;38650;44.536;18.664;2023-05-29T13:19:09;27.80;95.80
52765;DHT22;38650;44.536;18.664;2023-05-29T13:21:35;27.70;95.50
52765;DHT22;38650;44.536;18.664;2023-05-29T13:24:00;27.60;94.30
52765;DHT22;38650;44.536;18.664;2023-05-29T13:26:26;27.40;95.20
52765;DHT22;38650;44.536;18.664;2023-05-29T13:28:52;27.20;95.30
52765;DHT22;38650;44.536;18.664;2023-05-29T13:31:17;27.00;94.60
52765;DHT22;38650;44.536;18.664;2023-05-29T13:33:46;27.00;95.20
52765;DHT22;38650;44.536;18.664;2023-05-29T13:36:12;27.00;95.70
52765;DHT22;38650;44.536;18.664;2023-05-29T13:38:38;26.90;95.90
52765;DHT22;38650;44.536;18.664;2023-05-29T13:41:03;26.90;96.30
52765;DHT22;38650;44.536;18.664;2023-05-29T13:43:29;26.50;97.60
52765;DHT22;38650;44.536;18.664;2023-05-29T13:45:54;25.90;99.20
52765;DHT22;38650;44.536;18.664;2023-05-29T13:48:20;25.50;99.90
52765;DHT22;38650;44.536;18.664;2023-05-29T13:50:46;25.20;99.90
52765;DHT22;38650;44.536;18.664;2023-05-29T13:53:12;25.10;99.90
52765;DHT22;38650;44.536;18.664;2023-05-29T13:55:37;25.10;99.90
52765;DHT22;38650;44.536;18.664;2023-05-29T13:58:03;25.00;99.90
52765;DHT22;38650;44.536;18.664;2023-05-29T14:00:28;24.90;99.90
52765;DHT22;38650;44.536;18.664;2023-05-29T14:02:54;24.90;99.90
52765;DHT22;38650;44.536;18.664;2023-05-29T14:05:19;24.90;99.90
52765;DHT22;38650;44.536;18.664;2023-05-29T14:07:45;25.10;99.90
52765;DHT22;38650;44.536;18.664;2023-05-29T14:10:11;25.30;99.90
52765;DHT22;38650;44.536;18.664;2023-05-29T14:12:36;25.30;99.90
52765;DHT22;38650;44.536;18.664;2023-05-29T14:15:02;25.20;99.90
52765;DHT22;38650;44.536;18.664;2023-05-29T14:17:28;24.90;99.90
52765;DHT22;38650;44.536;18.664;2023-05-29T14:19:53;24.60;99.90
52765;DHT22;38650;44.536;18.664;2023-05-29T14:22:20;24.40;99.90
52765;DHT22;38650;44.536;18.664;2023-05-29T14:24:45;24.30;99.90
52765;DHT22;38650;44.536;18.664;2023-05-29T14:27:11;24.30;99.90
52765;DHT22;38650;44.536;18.664;2023-05-29T14:29:36;24.30;99.90
52765;DHT22;38650;44.536;18.664;2023-05-29T14:32:02;24.40;99.90
52765;DHT22;38650;44.536;18.664;2023-05-29T14:34:28;24.40;99.90
52765;DHT22;38650;44.536;18.664;2023-05-29T14:36:53;24.40;99.90
52765;DHT22;38650;44.536;18.664;2023-05-29T14:39:19;24.50;99.90
52765;DHT22;38650;44.536;18.664;2023-05-29T14:41:44;24.60;99.90
52765;DHT22;38650;44.536;18.664;2023-05-29T14:44:10;24.70;99.90
52765;DHT22;38650;44.536;18.664;2023-05-29T14:46:37;24.70;99.90
52765;DHT22;38650;44.536;18.664;2023-05-29T14:49:03;24.80;99.90
52765;DHT22;38650;44.536;18.664;2023-05-29T14:51:28;24.90;99.90
52765;DHT22;38650;44.536;18.664;2023-05-29T14:53:54;25.10;99.90
52765;DHT22;38650;44.536;18.664;2023-05-29T14:56:20;25.20;99.90
52765;DHT22;38650;44.536;18.664;2023-05-29T14:58:45;25.30;99.90
52765;DHT22;38650;44.536;18.664;2023-05-29T15:01:13;25.30;99.90
52765;DHT22;38650;44.536;18.664;2023-05-29T15:03:39;25.40;99.90
52765;DHT22;38650;44.536;18.664;2023-05-29T15:06:04;25.60;99.30
52765;DHT22;38650;44.536;18.664;2023-05-29T15:08:31;26.00;97.90
52765;DHT22;38650;44.536;18.664;2023-05-29T15:11:02;26.10;97.60
52765;DHT22;38650;44.536;18.664;2023-05-29T15:13:31;26.20;97.10
52765;DHT22;38650;44.536;18.664;2023-05-29T15:15:57;26.40;96.60
52765;DHT22;38650;44.536;18.664;2023-05-29T15:18:25;26.50;96.90
52765;DHT22;38650;44.536;18.664;2023-05-29T15:20:51;26.40;96.20
52765;DHT22;38650;44.536;18.664;2023-05-29T15:23:18;26.60;97.40
52765;DHT22;38650;44.536;18.664;2023-05-29T15:25:44;26.90;96.70
52765;DHT22;38650;44.536;18.664;2023-05-29T15:28:10;26.90;94.40
52765;DHT22;38650;44.536;18.664;2023-05-29T15:30:38;26.80;92.00
52765;DHT22;38650;44.536;18.664;2023-05-29T15:33:03;26.80;93.00
52765;DHT22;38650;44.536;18.664;2023-05-29T15:35:33;26.70;92.60
52765;DHT22;38650;44.536;18.664;2023-05-29T15:37:58;26.90;93.50
52765;DHT22;38650;44.536;18.664;2023-05-29T15:40:24;27.10;93.10
52765;DHT22;38650;44.536;18.664;2023-05-29T15:42:49;27.20;93.00
52765;DHT22;38650;44.536;18.664;2023-05-29T15:45:15;27.30;93.60
52765;DHT22;38650;44.536;18.664;2023-05-29T15:47:41;27.20;92.10
52765;DHT22;38650;44.536;18.664;2023-05-29T15:50:06;26.80;92.70
52765;DHT22;38650;44.536;18.664;2023-05-29T15:52:32;26.80;93.00
52765;DHT22;38650;44.536;18.664;2023-05-29T15:54:57;26.70;93.00
52765;DHT22;38650;44.536;18.664;2023-05-29T15:57:23;26.60;92.80
52765;DHT22;38650;44.536;18.664;2023-05-29T15:59:48;26.40;93.50
52765;DHT22;38650;44.536;18.664;2023-05-29T16:02:14;26.20;94.20
52765;DHT22;38650;44.536;18.664;2023-05-29T16:04:40;26.00;93.70
52765;DHT22;38650;44.536;18.664;2023-05-29T16:07:05;25.90;93.90